createdAt,value
2018-07-22T00:01:03.465Z,21.62
2018-07-22T00:03:33.244Z,21.55
2018-07-22T00:06:02.988Z,21.57
2018-07-22T00:08:32.698Z,21.65
2018-07-22T00:11:02.480Z,21.50
2018-07-22T00:13:32.208Z,21.72
2018-07-22T00:16:01.895Z,21.54
2018-07-22T00:18:31.569Z,21.43
2018-07-22T00:21:01.328Z,21.37
2018-07-22T00:23:31.093Z,21.36
2018-07-22T00:26:00.897Z,21.41
2018-07-22T00:28:30.585Z,21.48
2018-07-22T00:31:00.444Z,21.37
2018-07-22T00:33:30.269Z,21.29
2018-07-22T00:36:00.024Z,21.41
2018-07-22T00:38:29.757Z,21.28
2018-07-22T00:40:59.521Z,21.14
2018-07-22T00:43:29.284Z,21.20
2018-07-22T00:45:59.073Z,21.18
2018-07-22T00:48:28.802Z,21.01
2018-07-22T00:50:58.549Z,21.00
2018-07-22T00:53:28.262Z,20.97
2018-07-22T00:55:57.885Z,21.07
2018-07-22T00:58:27.613Z,20.95
2018-07-22T01:00:57.310Z,20.83
2018-07-22T01:03:27.066Z,20.89
2018-07-22T01:05:56.694Z,20.87
2018-07-22T01:08:26.352Z,20.63
2018-07-22T01:10:56.030Z,20.61
2018-07-22T01:13:26.265Z,20.49
2018-07-22T01:15:56.062Z,20.49
2018-07-22T01:18:25.822Z,20.45
2018-07-22T01:20:55.513Z,20.61
2018-07-22T01:23:25.168Z,20.54
2018-07-22T01:25:54.798Z,20.58
2018-07-22T01:28:24.741Z,20.58
2018-07-22T01:30:55.084Z,20.50
2018-07-22T01:33:24.765Z,20.47
2018-07-22T01:35:55.142Z,20.58
2018-07-22T01:38:24.850Z,20.41
2018-07-22T01:40:54.549Z,20.42
2018-07-22T01:43:24.374Z,20.21
2018-07-22T01:45:54.029Z,20.38
2018-07-22T01:48:25.124Z,20.20
2018-07-22T01:50:54.814Z,20.31
2018-07-22T01:53:24.522Z,20.21
2018-07-22T01:55:54.179Z,20.27
2018-07-22T01:58:23.852Z,20.30
2018-07-22T02:00:53.500Z,20.36
2018-07-22T02:03:23.453Z,20.26
2018-07-22T02:05:52.919Z,19.97
2018-07-22T02:08:22.785Z,20.03
2018-07-22T02:10:52.687Z,19.90
2018-07-22T02:13:22.384Z,19.84
2018-07-22T02:15:52.349Z,19.77
2018-07-22T02:18:22.000Z,19.71
2018-07-22T02:20:51.780Z,19.74
2018-07-22T02:23:21.429Z,19.78
2018-07-22T02:25:51.279Z,19.73
2018-07-22T02:28:20.924Z,19.96
2018-07-22T02:30:50.573Z,19.82
2018-07-22T02:33:20.352Z,19.74
2018-07-22T02:35:50.069Z,19.79
2018-07-22T02:38:19.710Z,19.86
2018-07-22T02:40:49.483Z,19.87
2018-07-22T02:43:19.133Z,19.64
2018-07-22T02:45:48.960Z,19.61
2018-07-22T02:48:18.709Z,19.66
2018-07-22T02:50:48.365Z,19.67
2018-07-22T02:53:18.074Z,19.58
2018-07-22T02:55:47.782Z,19.54
2018-07-22T02:58:17.591Z,19.64
2018-07-22T03:00:47.317Z,19.55
2018-07-22T03:03:16.998Z,19.44
2018-07-22T03:05:46.647Z,19.32
2018-07-22T03:08:16.385Z,19.12
2018-07-22T03:10:46.162Z,19.23
2018-07-22T03:13:15.839Z,19.44
2018-07-22T03:15:45.176Z,19.35
2018-07-22T03:18:14.942Z,19.47
2018-07-22T03:20:44.601Z,19.26
2018-07-22T03:23:14.256Z,19.12
2018-07-22T03:25:44.149Z,19.04
2018-07-22T03:28:13.809Z,18.83
2018-07-22T03:30:43.432Z,18.79
2018-07-22T03:33:13.345Z,18.86
2018-07-22T03:35:43.022Z,18.71
2018-07-22T03:38:12.710Z,18.57
2018-07-22T03:40:42.463Z,18.54
2018-07-22T03:43:12.152Z,18.29
2018-07-22T03:45:41.896Z,18.22
2018-07-22T03:48:11.236Z,18.24
2018-07-22T03:50:40.874Z,18.28
2018-07-22T03:53:10.561Z,18.20
2018-07-22T03:55:40.237Z,18.29
2018-07-22T03:58:10.034Z,18.29
2018-07-22T04:00:39.908Z,18.40
2018-07-22T04:03:09.889Z,18.48
2018-07-22T04:05:39.588Z,18.42
2018-07-22T04:08:09.457Z,18.54
2018-07-22T04:10:39.137Z,18.41
2018-07-22T04:13:09.282Z,18.46
2018-07-22T04:15:39.229Z,18.59
2018-07-22T04:18:15.471Z,18.49
2018-07-22T04:20:45.118Z,18.51
2018-07-22T04:23:14.760Z,18.54
2018-07-22T04:25:44.490Z,18.59
2018-07-22T04:28:14.297Z,18.62
2018-07-22T04:30:43.965Z,18.52
2018-07-22T04:33:13.673Z,18.51
2018-07-22T04:35:43.354Z,18.55
2018-07-22T04:38:13.607Z,18.44
2018-07-22T04:40:43.509Z,18.50
2018-07-22T04:43:13.262Z,18.48
2018-07-22T04:45:42.958Z,18.48
2018-07-22T04:48:12.780Z,18.46
2018-07-22T04:50:42.460Z,18.42
2018-07-22T04:53:12.044Z,18.33
2018-07-22T04:55:41.457Z,18.18
2018-07-22T04:58:11.185Z,18.25
2018-07-22T05:00:41.053Z,18.38
2018-07-22T05:03:10.989Z,18.30
2018-07-22T05:05:40.621Z,18.22
2018-07-22T05:08:10.001Z,18.27
2018-07-22T05:10:39.687Z,18.15
2018-07-22T05:13:09.368Z,18.23
2018-07-22T05:15:39.792Z,18.51
2018-07-22T05:18:09.594Z,18.44
2018-07-22T05:20:40.113Z,18.56
2018-07-22T05:23:09.919Z,18.59
2018-07-22T05:25:41.091Z,18.57
2018-07-22T05:28:10.442Z,18.66
2018-07-22T05:30:40.214Z,18.63
2018-07-22T05:33:09.903Z,18.74
2018-07-22T05:35:39.824Z,18.88
2018-07-22T05:38:09.656Z,19.04
2018-07-22T05:40:39.401Z,19.02
2018-07-22T05:43:09.069Z,19.03
2018-07-22T05:45:38.858Z,19.16
2018-07-22T05:48:08.786Z,19.21
2018-07-22T05:55:17.320Z,19.62
2018-07-22T05:57:47.065Z,19.65
2018-07-22T06:00:16.823Z,19.59
2018-07-22T06:02:46.658Z,19.88
2018-07-22T06:05:16.612Z,19.71
2018-07-22T06:07:46.333Z,19.68
2018-07-22T06:10:16.210Z,19.77
2018-07-22T06:12:46.004Z,20.21
2018-07-22T06:15:15.745Z,20.33
2018-07-22T06:17:45.425Z,20.52
2018-07-22T06:20:14.753Z,20.44
2018-07-22T06:22:44.469Z,20.73
2018-07-22T06:25:14.168Z,20.61
2018-07-22T06:27:43.855Z,20.60
2018-07-22T06:30:13.653Z,20.78
2018-07-22T06:32:43.337Z,20.67
2018-07-22T06:35:13.257Z,20.92
2018-07-22T06:37:43.003Z,20.74
2018-07-22T06:40:12.723Z,20.62
2018-07-22T06:42:42.500Z,20.89
2018-07-22T06:45:12.162Z,20.95
2018-07-22T06:47:41.857Z,21.48
2018-07-22T06:50:11.537Z,21.58
2018-07-22T06:52:41.204Z,21.52
2018-07-22T06:55:11.057Z,21.65
2018-07-22T06:57:40.913Z,21.88
2018-07-22T07:00:10.660Z,22.12
2018-07-22T07:02:40.017Z,21.98
2018-07-22T07:05:09.757Z,21.89
2018-07-22T07:07:39.462Z,22.38
2018-07-22T07:10:09.418Z,22.19
2018-07-22T07:12:39.294Z,22.07
2018-07-22T07:15:08.981Z,22.12
2018-07-22T07:17:38.704Z,22.15
2018-07-22T07:20:08.461Z,22.30
2018-07-22T07:22:38.445Z,22.11
2018-07-22T07:25:08.766Z,22.33
2018-07-22T07:27:38.653Z,22.94
2018-07-22T07:30:08.560Z,22.88
2018-07-22T07:32:38.037Z,23.19
2018-07-22T07:35:07.752Z,23.12
2018-07-22T07:37:37.421Z,23.20
2018-07-22T07:40:07.549Z,23.38
2018-07-22T07:42:37.764Z,23.09
2018-07-22T07:45:07.621Z,23.12
2018-07-22T07:47:37.422Z,22.82
2018-07-22T07:50:07.218Z,23.12
2018-07-22T07:52:36.946Z,23.49
2018-07-22T07:55:07.000Z,23.44
2018-07-22T07:57:37.209Z,23.45
2018-07-22T08:00:07.479Z,23.82
2018-07-22T08:02:37.206Z,24.25
2018-07-22T08:05:07.370Z,24.57
2018-07-22T08:07:37.477Z,24.88
2018-07-22T08:10:08.136Z,27.29
2018-07-22T08:12:37.868Z,27.70
2018-07-22T08:15:07.843Z,27.89
2018-07-22T08:17:37.500Z,29.41
2018-07-22T08:20:07.547Z,29.12
2018-07-22T08:22:37.344Z,29.43
2018-07-22T08:25:08.094Z,29.50
2018-07-22T08:27:37.859Z,30.34
2018-07-22T08:30:07.808Z,29.78
2018-07-22T08:32:37.608Z,29.55
2018-07-22T08:35:07.553Z,30.64
2018-07-22T08:37:37.431Z,30.70
2018-07-22T08:40:07.610Z,29.97
2018-07-22T08:42:37.355Z,30.31
2018-07-22T08:45:08.052Z,29.84
2018-07-22T08:47:37.783Z,30.51
2018-07-22T08:50:07.863Z,30.31
2018-07-22T08:52:37.741Z,28.62
2018-07-22T08:55:07.675Z,29.92
2018-07-22T08:57:37.688Z,30.37
2018-07-22T09:00:08.215Z,31.23
2018-07-22T09:02:38.022Z,31.70
2018-07-22T09:05:08.299Z,31.64
2018-07-22T09:07:38.010Z,31.48
2018-07-22T09:10:08.193Z,32.96
2018-07-22T09:12:37.882Z,32.02
2018-07-22T09:15:07.871Z,31.72
2018-07-22T09:17:37.637Z,32.98
2018-07-22T09:20:07.478Z,32.04
2018-07-22T09:22:37.169Z,31.86
2018-07-22T09:25:07.137Z,31.23
2018-07-22T09:27:36.914Z,32.69
2018-07-22T09:30:07.188Z,33.64
2018-07-22T09:32:36.984Z,33.53
2018-07-22T09:35:06.767Z,33.45
2018-07-22T09:37:36.578Z,31.37
2018-07-22T09:40:06.494Z,33.59
2018-07-22T09:42:36.232Z,33.53
2018-07-22T09:45:06.246Z,33.97
2018-07-22T09:47:36.116Z,33.87
2018-07-22T09:50:05.814Z,34.75
2018-07-22T09:52:35.184Z,34.43
2018-07-22T09:55:04.921Z,32.75
2018-07-22T09:57:34.850Z,34.88
2018-07-22T10:00:05.350Z,34.86
2018-07-22T10:02:36.141Z,34.88
2018-07-22T10:05:05.962Z,34.97
2018-07-22T10:07:35.744Z,34.65
2018-07-22T10:10:05.614Z,34.69
2018-07-22T10:12:35.288Z,34.35
2018-07-22T10:15:05.291Z,34.30
2018-07-22T10:17:35.129Z,33.50
2018-07-22T10:20:04.881Z,33.77
2018-07-22T10:22:34.654Z,34.52
2018-07-22T10:25:04.362Z,33.64
2018-07-22T10:27:34.090Z,33.68
2018-07-22T10:30:03.871Z,34.09
2018-07-22T10:32:33.602Z,34.60
2018-07-22T10:35:03.437Z,34.09
2018-07-22T10:37:33.365Z,35.04
2018-07-22T10:40:03.332Z,34.66
2018-07-22T10:42:33.263Z,33.30
2018-07-22T10:45:03.003Z,33.86
2018-07-22T10:47:32.694Z,34.78
2018-07-22T10:50:02.394Z,33.47
2018-07-22T10:52:32.503Z,33.53
2018-07-22T10:55:02.247Z,32.80
2018-07-22T10:57:32.056Z,33.60
2018-07-22T11:00:02.122Z,34.18
2018-07-22T11:02:31.976Z,35.04
2018-07-22T11:05:01.717Z,35.43
2018-07-22T11:07:31.712Z,35.70
2018-07-22T11:10:01.390Z,34.80
2018-07-22T11:12:31.165Z,34.52
2018-07-22T11:15:01.072Z,33.98
2018-07-22T11:17:30.857Z,34.58
2018-07-22T11:20:00.589Z,33.95
2018-07-22T11:22:30.321Z,35.49
2018-07-22T11:25:00.103Z,34.21
2018-07-22T11:27:29.915Z,34.29
2018-07-22T11:29:59.710Z,34.47
2018-07-22T11:32:29.427Z,35.07
2018-07-22T11:34:59.153Z,34.90
2018-07-22T11:37:28.897Z,34.45
2018-07-22T11:39:58.636Z,34.75
2018-07-22T11:42:27.972Z,34.08
2018-07-22T11:44:57.753Z,33.56
2018-07-22T11:47:27.457Z,33.95
2018-07-22T11:49:56.830Z,34.14
2018-07-22T11:52:26.697Z,35.00
2018-07-22T11:54:56.454Z,34.27
2018-07-22T11:57:26.142Z,34.59
2018-07-22T11:59:55.914Z,34.61
2018-07-22T12:02:25.617Z,34.62
2018-07-22T12:04:55.402Z,34.82
2018-07-22T12:07:25.247Z,33.25
2018-07-22T12:09:55.008Z,35.07
2018-07-22T12:12:24.804Z,34.54
2018-07-22T12:14:54.537Z,35.70
2018-07-22T12:17:24.417Z,34.83
2018-07-22T12:19:54.134Z,34.20
2018-07-22T12:22:23.928Z,34.51
2018-07-22T12:24:53.758Z,35.08
2018-07-22T12:27:23.536Z,34.56
2018-07-22T12:29:53.300Z,33.29
2018-07-22T12:32:23.101Z,33.98
2018-07-22T12:34:52.910Z,33.83
2018-07-22T12:37:22.629Z,33.90
2018-07-22T12:39:52.522Z,32.65
2018-07-22T12:42:22.524Z,31.76
2018-07-22T12:44:52.250Z,32.38
2018-07-22T12:47:22.100Z,32.92
2018-07-22T12:49:51.825Z,33.09
2018-07-22T12:52:21.168Z,33.82
2018-07-22T12:54:50.897Z,35.14
2018-07-22T12:57:20.638Z,34.55
2018-07-22T12:59:50.665Z,35.14
2018-07-22T13:02:20.384Z,34.60
2018-07-22T13:04:50.125Z,33.32
2018-07-22T13:07:19.968Z,33.13
2018-07-22T13:09:49.774Z,32.29
2018-07-22T13:12:19.641Z,33.21
2018-07-22T13:14:49.529Z,33.97
2018-07-22T13:17:19.198Z,34.53
2018-07-22T13:19:48.907Z,35.12
2018-07-22T13:22:18.681Z,34.50
2018-07-22T13:24:48.499Z,34.49
2018-07-22T13:27:18.261Z,34.47
2018-07-22T13:29:47.928Z,35.88
2018-07-22T13:32:17.715Z,35.56
2018-07-22T13:34:47.481Z,35.18
2018-07-22T13:37:17.333Z,35.46
2018-07-22T13:39:47.266Z,33.56
2018-07-22T13:42:17.416Z,33.36
2018-07-22T13:44:47.207Z,34.54
2018-07-22T13:47:16.988Z,34.43
2018-07-22T13:49:46.585Z,36.03
2018-07-22T13:52:16.051Z,37.02
2018-07-22T13:54:45.918Z,36.40
2018-07-22T13:57:15.768Z,36.15
2018-07-22T13:59:45.534Z,37.54
2018-07-22T14:02:15.302Z,37.37
2018-07-22T14:04:45.081Z,37.03
2018-07-22T14:07:14.954Z,35.03
2018-07-22T14:09:44.866Z,36.29
2018-07-22T14:12:14.709Z,36.56
2018-07-22T14:14:45.589Z,36.72
2018-07-22T14:17:15.601Z,36.73
2018-07-22T14:19:45.465Z,37.30
2018-07-22T14:22:16.163Z,36.14
2018-07-22T14:24:45.917Z,36.76
2018-07-22T14:27:15.641Z,37.08
2018-07-22T14:29:45.488Z,37.33
2018-07-22T14:32:15.234Z,36.28
2018-07-22T14:34:44.922Z,33.43
2018-07-22T14:37:14.647Z,34.27
2018-07-22T14:39:44.378Z,35.42
2018-07-22T14:42:14.281Z,35.53
2018-07-22T14:44:44.002Z,36.63
2018-07-22T14:47:13.937Z,36.40
2018-07-22T14:49:43.519Z,37.02
2018-07-22T14:52:13.245Z,35.22
2018-07-22T14:54:43.092Z,33.44
2018-07-22T14:57:12.931Z,32.33
2018-07-22T14:59:42.824Z,33.86
2018-07-22T15:02:12.721Z,33.47
2018-07-22T15:04:42.434Z,31.88
2018-07-22T15:07:12.085Z,33.16
2018-07-22T15:09:41.814Z,32.53
2018-07-22T15:12:11.532Z,32.01
2018-07-22T15:14:40.958Z,31.18
2018-07-22T15:17:10.637Z,30.40
2018-07-22T15:19:40.584Z,29.73
2018-07-22T15:22:09.961Z,30.51
2018-07-22T15:24:40.911Z,30.32
2018-07-22T15:27:10.604Z,30.42
2018-07-22T15:29:40.428Z,31.77
2018-07-22T15:32:10.305Z,31.81
2018-07-22T15:34:40.272Z,32.76
2018-07-22T15:37:10.268Z,33.33
2018-07-22T15:39:40.153Z,32.49
2018-07-22T15:42:10.102Z,31.06
2018-07-22T15:44:39.889Z,31.27
2018-07-22T15:47:09.865Z,31.01
2018-07-22T15:49:39.649Z,31.03
2018-07-22T15:52:09.418Z,30.46
2018-07-22T15:54:38.904Z,29.78
2018-07-22T15:57:08.713Z,29.57
2018-07-22T15:59:38.449Z,29.28
2018-07-22T16:02:08.125Z,29.15
2018-07-22T16:04:37.997Z,29.09
2018-07-22T16:07:07.724Z,28.53
2018-07-22T16:09:37.442Z,28.47
2018-07-22T16:12:07.250Z,28.47
2018-07-22T16:14:36.975Z,28.17
2018-07-22T16:17:06.977Z,28.21
2018-07-22T16:19:36.662Z,28.04
2018-07-22T16:22:06.441Z,28.06
2018-07-22T16:24:36.172Z,27.83
2018-07-22T16:27:05.905Z,27.76
2018-07-22T16:29:35.299Z,27.74
2018-07-22T16:32:05.184Z,27.66
2018-07-22T16:34:35.083Z,27.82
2018-07-22T16:37:04.818Z,27.64
2018-07-22T16:39:34.650Z,27.79
2018-07-22T16:42:05.036Z,27.76
2018-07-22T16:44:34.985Z,28.31
2018-07-22T16:47:05.409Z,29.28
2018-07-22T16:49:35.328Z,29.51
2018-07-22T16:52:05.141Z,29.21
2018-07-22T16:54:34.961Z,28.87
2018-07-22T16:57:04.655Z,28.84
2018-07-22T16:59:34.578Z,28.39
2018-07-22T17:02:04.287Z,28.65
2018-07-22T17:04:34.045Z,28.53
2018-07-22T17:07:03.733Z,28.73
2018-07-22T17:09:33.511Z,28.62
2018-07-22T17:12:03.286Z,28.69
2018-07-22T17:14:33.016Z,28.74
2018-07-22T17:17:02.757Z,28.99
2018-07-22T17:19:32.544Z,28.71
2018-07-22T17:22:02.682Z,28.61
2018-07-22T17:24:32.386Z,28.37
2018-07-22T17:27:02.211Z,28.53
2018-07-22T17:29:32.000Z,28.37
2018-07-22T17:32:01.932Z,28.19
2018-07-22T17:34:31.733Z,28.12
2018-07-22T17:37:01.406Z,28.16
2018-07-22T17:39:31.140Z,28.14
2018-07-22T17:42:01.854Z,28.08
2018-07-22T17:44:31.646Z,27.74
2018-07-22T17:47:02.519Z,27.96
2018-07-22T17:49:32.271Z,27.69
2018-07-22T17:52:02.062Z,27.42
2018-07-22T17:54:31.746Z,27.56
2018-07-22T17:57:01.757Z,27.44
2018-07-22T17:59:31.531Z,27.54
2018-07-22T18:02:01.524Z,27.46
2018-07-22T18:04:31.244Z,27.28
2018-07-22T18:07:01.610Z,26.99
2018-07-22T18:09:31.330Z,27.11
2018-07-22T18:12:01.089Z,27.20
2018-07-22T18:14:30.896Z,27.20
2018-07-22T18:17:01.685Z,26.97
2018-07-22T18:19:31.596Z,26.83
2018-07-22T18:22:02.055Z,26.86
2018-07-22T18:24:32.034Z,26.75
2018-07-22T18:27:01.825Z,26.63
2018-07-22T18:29:41.057Z,26.46
2018-07-22T18:32:10.994Z,26.41
2018-07-22T18:34:53.768Z,26.28
2018-07-22T18:37:24.012Z,26.37
2018-07-22T18:39:54.771Z,26.33
2018-07-22T18:42:24.912Z,26.40
2018-07-22T18:44:54.854Z,26.23
2018-07-22T18:47:24.895Z,26.15
2018-07-22T18:49:55.585Z,26.05
2018-07-22T18:52:25.642Z,25.96
2018-07-22T18:54:55.702Z,25.87
2018-07-22T18:57:27.286Z,25.79
2018-07-22T18:59:58.214Z,25.69
2018-07-22T19:02:28.665Z,25.61
2018-07-22T19:04:58.943Z,25.50
2018-07-22T19:07:29.200Z,25.41
2018-07-22T19:09:59.212Z,25.38
2018-07-22T19:12:29.348Z,25.28
2018-07-22T19:14:59.417Z,25.17
2018-07-22T19:17:29.494Z,25.11
2018-07-22T19:19:59.487Z,25.08
2018-07-22T19:22:29.591Z,25.01
2018-07-22T19:24:59.634Z,24.96
2018-07-22T19:27:29.790Z,24.87
2018-07-22T19:29:59.846Z,24.78
2018-07-22T19:32:29.878Z,24.77
2018-07-22T19:34:59.933Z,24.70
2018-07-22T19:37:30.102Z,24.63
2018-07-22T19:40:00.141Z,24.59
2018-07-22T19:42:29.813Z,24.55
2018-07-22T19:44:59.816Z,24.57
2018-07-22T19:47:29.812Z,24.53
2018-07-22T19:49:59.760Z,24.50
2018-07-22T19:52:29.841Z,24.47
2018-07-22T19:54:59.795Z,24.55
2018-07-22T19:57:29.803Z,24.52
2018-07-22T19:59:59.809Z,24.44
2018-07-22T20:02:29.854Z,24.27
2018-07-22T20:05:00.031Z,24.39
2018-07-22T20:07:30.065Z,24.39
2018-07-22T20:10:00.171Z,24.44
2018-07-22T20:12:30.192Z,24.34
2018-07-22T20:15:00.300Z,24.15
2018-07-22T20:17:30.660Z,23.91
2018-07-22T20:20:00.662Z,23.65
2018-07-22T20:22:30.781Z,23.42
2018-07-22T20:25:00.843Z,23.23
2018-07-22T20:27:30.907Z,23.09
2018-07-22T20:30:00.764Z,23.03
2018-07-22T20:32:30.763Z,22.81
2018-07-22T20:35:00.623Z,22.62
2018-07-22T20:37:30.927Z,22.54
2018-07-22T20:40:01.038Z,22.48
2018-07-22T20:42:30.785Z,22.48
2018-07-22T20:45:00.509Z,22.50
2018-07-22T20:47:30.250Z,22.47
2018-07-22T20:50:00.058Z,22.45
2018-07-22T20:52:29.809Z,22.39
2018-07-22T20:55:06.240Z,22.71
2018-07-22T20:57:35.947Z,23.18
2018-07-22T21:00:06.208Z,23.03
2018-07-22T21:02:35.983Z,22.94
2018-07-22T21:05:06.462Z,22.77
2018-07-22T21:07:36.145Z,22.80
2018-07-22T21:10:05.877Z,22.82
2018-07-22T21:12:54.646Z,22.81
2018-07-22T21:15:24.515Z,22.80
2018-07-22T21:17:54.499Z,22.93
2018-07-22T21:20:24.482Z,22.88
2018-07-22T21:22:54.209Z,22.77
2018-07-22T21:25:24.064Z,22.81
2018-07-22T21:27:53.742Z,22.74
2018-07-22T21:30:23.498Z,22.47
2018-07-22T21:32:54.305Z,22.27
2018-07-22T21:35:24.224Z,22.14
2018-07-22T21:37:54.132Z,22.04
2018-07-22T21:40:23.942Z,21.99
2018-07-22T21:42:54.137Z,21.98
2018-07-22T21:45:23.925Z,22.02
2018-07-22T21:47:53.692Z,21.92
2018-07-22T21:50:23.707Z,21.80
2018-07-22T21:52:53.546Z,21.67
2018-07-22T21:55:23.384Z,21.61
2018-07-22T21:57:53.241Z,21.58
2018-07-22T22:00:31.202Z,21.45
2018-07-22T22:03:02.801Z,21.32
2018-07-22T22:05:32.601Z,21.20
2018-07-22T22:08:02.452Z,21.09
2018-07-22T22:10:32.189Z,21.03
2018-07-22T22:13:01.979Z,20.91
2018-07-22T22:15:32.611Z,20.84
2018-07-22T22:18:03.586Z,20.79
2018-07-22T22:20:33.632Z,20.70
2018-07-22T22:23:03.397Z,20.71
2018-07-22T22:25:33.454Z,20.63
2018-07-22T22:28:03.222Z,20.56
2018-07-22T22:30:33.181Z,20.58
2018-07-22T22:33:04.648Z,20.57
2018-07-22T22:35:35.087Z,20.48
2018-07-22T22:38:04.945Z,20.35
2018-07-22T22:40:34.756Z,20.29
2018-07-22T22:43:04.623Z,20.17
2018-07-22T22:45:35.099Z,20.05
2018-07-22T22:48:04.901Z,19.99
2018-07-22T22:50:34.617Z,19.91
2018-07-22T22:53:04.326Z,19.88
2018-07-22T22:55:33.746Z,19.81
2018-07-22T22:58:20.187Z,19.78
2018-07-22T23:00:49.921Z,19.70
2018-07-22T23:03:19.628Z,19.62
2018-07-22T23:05:49.303Z,19.53
2018-07-22T23:08:19.026Z,19.49
2018-07-22T23:10:48.754Z,19.41
2018-07-22T23:13:18.481Z,19.33
2018-07-22T23:15:48.158Z,19.26
2018-07-22T23:18:17.865Z,19.18
2018-07-22T23:20:47.573Z,19.11
2018-07-22T23:23:17.306Z,19.00
2018-07-22T23:25:47.051Z,18.93
2018-07-22T23:28:16.734Z,18.83
2018-07-22T23:30:46.579Z,18.74
2018-07-22T23:33:16.305Z,18.70
2018-07-22T23:35:46.299Z,18.68
2018-07-22T23:38:15.991Z,18.74
2018-07-22T23:40:45.766Z,18.80
2018-07-22T23:43:15.529Z,18.76
2018-07-22T23:45:45.396Z,18.71
2018-07-22T23:48:15.104Z,18.58
2018-07-22T23:50:45.885Z,18.63
2018-07-22T23:53:15.722Z,18.58
2018-07-22T23:55:45.421Z,18.54
2018-07-22T23:58:15.122Z,18.51
